createdAt,value
2017-11-05T00:02:03.344Z,67.9
2017-11-05T00:07:03.236Z,67.7
2017-11-05T00:12:03.166Z,67.7
2017-11-05T00:17:03.983Z,68.2
2017-11-05T00:22:03.084Z,68.1
2017-11-05T00:27:03.733Z,68.2
2017-11-05T00:32:03.971Z,68.0
2017-11-05T00:37:03.094Z,68.0
2017-11-05T00:42:03.164Z,68.0
2017-11-05T00:47:03.890Z,67.8
2017-11-05T00:52:02.966Z,67.7
2017-11-05T00:57:03.821Z,67.8
2017-11-05T01:02:03.548Z,67.4
2017-11-05T01:07:03.719Z,67.4
2017-11-05T01:12:03.711Z,67.9
2017-11-05T01:17:03.680Z,68.0
2017-11-05T01:22:03.183Z,67.8
2017-11-05T01:27:03.157Z,67.7
2017-11-05T01:32:03.285Z,67.7
2017-11-05T01:37:03.016Z,67.7
2017-11-05T01:42:03.691Z,67.9
2017-11-05T01:47:03.723Z,67.9
2017-11-05T01:52:03.030Z,68.0
2017-11-05T01:57:04.015Z,68.1
2017-11-05T02:02:03.862Z,68.4
2017-11-05T02:07:03.252Z,68.1
2017-11-05T02:12:03.180Z,68.3
2017-11-05T02:17:03.530Z,68.3
2017-11-05T02:22:03.792Z,68.3
2017-11-05T02:27:03.118Z,68.4
2017-11-05T02:32:03.819Z,68.4
2017-11-05T02:37:03.807Z,68.3
2017-11-05T02:42:03.614Z,68.2
2017-11-05T02:47:03.474Z,68.3
2017-11-05T02:52:03.450Z,68.2
2017-11-05T02:57:03.242Z,68.3
2017-11-05T03:02:03.182Z,68.4
2017-11-05T03:07:03.668Z,68.6
2017-11-05T03:12:03.597Z,68.4
2017-11-05T03:17:03.612Z,68.3
2017-11-05T03:22:03.427Z,68.3
2017-11-05T03:27:03.239Z,68.1
2017-11-05T03:32:03.305Z,68.2
2017-11-05T03:37:03.908Z,68.3
2017-11-05T03:42:03.229Z,68.3
2017-11-05T03:47:03.565Z,68.2
2017-11-05T03:52:03.896Z,68.3
2017-11-05T03:57:03.233Z,68.3
2017-11-05T04:02:03.538Z,68.3
2017-11-05T04:07:03.084Z,68.3
2017-11-05T04:12:03.486Z,68.3
2017-11-05T04:17:03.836Z,68.4
2017-11-05T04:22:03.243Z,68.4
2017-11-05T04:27:03.548Z,68.5
2017-11-05T04:32:03.818Z,68.6
2017-11-05T04:37:03.147Z,68.6
2017-11-05T04:42:03.370Z,68.7
2017-11-05T04:47:03.724Z,68.8
2017-11-05T04:52:03.046Z,68.8
2017-11-05T04:57:03.307Z,69.1
2017-11-05T05:02:03.694Z,69.3
2017-11-05T05:07:03.257Z,69.3
2017-11-05T05:12:03.542Z,69.3
2017-11-05T05:17:03.972Z,69.4
2017-11-05T05:22:03.240Z,69.6
2017-11-05T05:27:03.594Z,69.7
2017-11-05T05:32:03.847Z,69.7
2017-11-05T05:37:03.299Z,69.7
2017-11-05T05:42:03.396Z,69.8
2017-11-05T05:47:05.019Z,69.8
2017-11-05T05:52:03.109Z,69.8
2017-11-05T05:57:03.388Z,70.0
2017-11-05T06:02:22.531Z,70.0
2017-11-05T06:07:03.331Z,70.0
2017-11-05T06:12:03.169Z,70.0
2017-11-05T06:17:28.698Z,70.2
2017-11-05T06:22:03.235Z,70.2
2017-11-05T06:27:03.593Z,70.0
2017-11-05T06:32:28.238Z,70.2
2017-11-05T06:37:03.672Z,70.1
2017-11-05T06:42:03.420Z,70.2
2017-11-05T06:47:23.706Z,70.4
2017-11-05T06:52:03.518Z,70.4
2017-11-05T06:57:03.088Z,70.4
2017-11-05T07:02:30.412Z,70.5
2017-11-05T07:07:03.836Z,70.4
2017-11-05T07:12:03.487Z,70.5
2017-11-05T07:17:22.292Z,70.5
2017-11-05T07:22:03.360Z,70.5
2017-11-05T07:27:03.828Z,70.6
2017-11-05T07:32:23.284Z,70.6
2017-11-05T07:37:03.119Z,70.4
2017-11-05T07:42:03.687Z,70.3
2017-11-05T07:47:28.785Z,70.2
2017-11-05T07:52:03.628Z,70.4
2017-11-05T07:57:03.210Z,70.3
2017-11-05T08:02:29.075Z,70.4
2017-11-05T08:07:03.586Z,70.3
2017-11-05T08:12:03.170Z,70.2
2017-11-05T08:17:32.457Z,70.1
2017-11-05T08:22:03.069Z,70.1
2017-11-05T08:27:03.535Z,70.3
2017-11-05T08:32:36.511Z,70.5
2017-11-05T08:37:03.050Z,70.4
2017-11-05T08:42:03.549Z,70.4
2017-11-05T08:47:28.439Z,70.5
2017-11-05T08:52:03.494Z,70.5
2017-11-05T08:57:03.937Z,73.3
2017-11-05T09:02:31.263Z,74.5
2017-11-05T09:07:03.195Z,74.4
2017-11-05T09:12:03.751Z,74.7
2017-11-05T09:17:22.061Z,74.6
2017-11-05T09:22:03.320Z,74.8
2017-11-05T09:27:03.809Z,74.8
2017-11-05T09:32:26.486Z,74.5
2017-11-05T09:37:03.245Z,74.4
2017-11-05T09:42:03.622Z,74.3
2017-11-05T09:47:23.443Z,74.9
2017-11-05T09:52:02.985Z,75.2
2017-11-05T09:57:03.497Z,75.1
2017-11-05T10:02:32.280Z,75.0
2017-11-05T10:07:03.215Z,74.6
2017-11-05T10:12:03.824Z,74.6
2017-11-05T10:17:29.005Z,75.4
2017-11-05T10:22:03.751Z,75.7
2017-11-05T10:27:03.272Z,75.6
2017-11-05T10:32:22.881Z,75.9
2017-11-05T10:37:02.979Z,75.9
2017-11-05T10:42:03.478Z,76.0
2017-11-05T10:47:26.996Z,75.9
2017-11-05T10:52:03.700Z,76.0
2017-11-05T10:57:03.155Z,75.8
2017-11-05T11:02:21.228Z,75.9
2017-11-05T11:07:03.730Z,75.9
2017-11-05T11:12:03.258Z,75.7
2017-11-05T11:17:26.749Z,75.8
2017-11-05T11:22:03.043Z,75.8
2017-11-05T11:27:03.647Z,75.6
2017-11-05T11:32:25.358Z,75.6
2017-11-05T11:37:03.794Z,75.5
2017-11-05T11:42:03.296Z,75.4
2017-11-05T11:47:27.950Z,75.6
2017-11-05T11:52:03.738Z,75.4
2017-11-05T11:57:03.157Z,75.4
2017-11-05T12:02:22.254Z,75.5
2017-11-05T12:07:03.856Z,75.5
2017-11-05T12:12:03.498Z,75.6
2017-11-05T12:17:29.363Z,75.7
2017-11-05T12:22:03.997Z,75.4
2017-11-05T12:27:03.378Z,75.4
2017-11-05T12:32:27.308Z,75.2
2017-11-05T12:37:03.133Z,75.2
2017-11-05T12:42:03.559Z,75.0
2017-11-05T12:47:17.463Z,74.7
2017-11-05T12:52:03.156Z,74.6
2017-11-05T12:57:03.630Z,74.0
2017-11-05T13:02:21.515Z,73.9
2017-11-05T13:07:03.828Z,73.8
2017-11-05T13:12:03.540Z,74.1
2017-11-05T13:17:25.439Z,73.7
2017-11-05T13:22:03.313Z,73.6
2017-11-05T13:27:03.798Z,74.1
2017-11-05T13:32:21.724Z,74.4
2017-11-05T13:37:03.915Z,74.4
2017-11-05T13:42:03.409Z,74.6
2017-11-05T13:47:32.685Z,74.7
2017-11-05T13:52:03.854Z,74.7
2017-11-05T13:57:03.373Z,74.5
2017-11-05T14:02:24.063Z,74.2
2017-11-05T14:07:03.175Z,73.2
2017-11-05T14:12:03.770Z,74.1
2017-11-05T14:17:28.163Z,73.9
2017-11-05T14:22:03.322Z,73.8
2017-11-05T14:27:03.800Z,74.0
2017-11-05T14:32:26.226Z,74.0
2017-11-05T14:37:03.750Z,73.8
2017-11-05T14:42:03.126Z,73.8
2017-11-05T14:47:23.211Z,73.3
2017-11-05T14:52:03.758Z,73.3
2017-11-05T14:57:03.180Z,73.0
2017-11-05T15:02:18.021Z,72.2
2017-11-05T15:07:03.695Z,72.1
2017-11-05T15:12:03.231Z,71.4
2017-11-05T15:17:27.497Z,71.2
2017-11-05T15:22:03.067Z,71.7
2017-11-05T15:27:03.133Z,71.7
2017-11-05T15:32:24.207Z,72.7
2017-11-05T15:37:03.778Z,72.6
2017-11-05T15:42:03.300Z,72.5
2017-11-05T15:47:28.536Z,72.5
2017-11-05T15:52:03.430Z,71.8
2017-11-05T15:57:03.094Z,71.8
2017-11-05T16:02:24.205Z,71.5
2017-11-05T16:07:03.784Z,71.5
2017-11-05T16:12:03.871Z,71.6
2017-11-05T16:17:21.493Z,70.9
2017-11-05T16:22:03.535Z,70.7
2017-11-05T16:27:03.170Z,70.8
2017-11-05T16:32:08.789Z,70.5
2017-11-05T16:37:03.808Z,70.5
2017-11-05T16:42:03.180Z,70.2
2017-11-05T16:47:03.579Z,70.0
2017-11-05T16:52:03.849Z,69.7
2017-11-05T16:57:03.257Z,69.7
2017-11-05T17:02:03.556Z,69.8
2017-11-05T17:07:03.926Z,69.7
2017-11-05T17:12:03.471Z,69.8
2017-11-05T17:17:03.779Z,69.7
2017-11-05T17:22:03.222Z,69.7
2017-11-05T17:27:03.444Z,69.8
2017-11-05T17:32:03.739Z,69.9
2017-11-05T17:37:03.088Z,69.8
2017-11-05T17:42:03.354Z,69.7
2017-11-05T17:47:03.768Z,69.7
2017-11-05T17:52:03.017Z,69.8
2017-11-05T17:57:03.404Z,69.6
2017-11-05T18:02:03.671Z,69.6
2017-11-05T18:07:03.155Z,69.6
2017-11-05T18:12:03.700Z,69.4
2017-11-05T18:17:05.584Z,69.1
2017-11-05T18:22:03.766Z,69.0
2017-11-05T18:27:03.161Z,69.3
2017-11-05T18:32:04.569Z,69.4
2017-11-05T18:37:03.767Z,69.5
2017-11-05T18:42:03.039Z,69.2
2017-11-05T18:47:03.751Z,69.2
2017-11-05T18:52:03.661Z,69.1
2017-11-05T18:57:03.076Z,68.9
2017-11-05T19:02:03.925Z,68.9
2017-11-05T19:07:03.722Z,68.9
2017-11-05T19:12:03.364Z,68.9
2017-11-05T19:17:04.364Z,68.8
2017-11-05T19:22:03.848Z,69.0
2017-11-05T19:27:03.267Z,68.9
2017-11-05T19:32:03.934Z,68.8
2017-11-05T19:37:03.772Z,68.8
2017-11-05T19:42:03.529Z,69.0
2017-11-05T19:47:03.909Z,69.0
2017-11-05T19:52:03.936Z,68.8
2017-11-05T19:57:03.371Z,68.7
2017-11-05T20:02:04.184Z,68.7
2017-11-05T20:07:04.009Z,68.5
2017-11-05T20:12:03.578Z,68.2
2017-11-05T20:17:04.080Z,68.1
2017-11-05T20:22:04.177Z,68.0
2017-11-05T20:27:03.535Z,68.3
2017-11-05T20:32:05.213Z,68.6
2017-11-05T20:37:04.089Z,68.6
2017-11-05T20:42:03.375Z,68.5
2017-11-05T20:47:03.778Z,68.4
2017-11-05T20:52:03.931Z,68.3
2017-11-05T20:57:03.422Z,68.3
2017-11-05T21:02:03.981Z,68.3
2017-11-05T21:07:03.876Z,68.3
2017-11-05T21:12:03.368Z,68.3
2017-11-05T21:17:03.778Z,68.3
2017-11-05T21:22:02.981Z,68.3
2017-11-05T21:27:03.441Z,68.7
2017-11-05T21:32:03.716Z,68.7
2017-11-05T21:37:03.023Z,68.6
2017-11-05T21:42:03.399Z,68.4
2017-11-05T21:47:03.740Z,68.4
2017-11-05T21:52:03.008Z,68.3
2017-11-05T21:57:03.423Z,68.3
2017-11-05T22:02:03.715Z,67.9
2017-11-05T22:07:03.944Z,68.6
2017-11-05T22:12:03.416Z,68.2
2017-11-05T22:17:03.745Z,68.4
2017-11-05T22:22:03.174Z,68.0
2017-11-05T22:27:03.426Z,68.1
2017-11-05T22:32:03.765Z,68.0
2017-11-05T22:37:04.071Z,67.9
2017-11-05T22:42:03.296Z,68.1
2017-11-05T22:47:03.666Z,68.3
2017-11-05T22:52:02.969Z,68.1
2017-11-05T22:57:03.363Z,68.1
2017-11-05T23:02:03.767Z,68.1
2017-11-05T23:07:03.974Z,68.0
2017-11-05T23:12:03.178Z,68.0
2017-11-05T23:22:03.800Z,67.7
2017-11-05T23:27:03.517Z,68.1
2017-11-05T23:32:03.187Z,67.9
2017-11-05T23:37:03.935Z,67.8
2017-11-05T23:42:03.679Z,67.7
2017-11-05T23:47:03.486Z,68.0
2017-11-05T23:52:03.458Z,67.9
2017-11-05T23:57:03.428Z,67.9
